createdAt,value
2019-03-29T00:00:50.999Z,68.70
2019-03-29T00:03:55.985Z,68.50
2019-03-29T00:07:00.978Z,68.50
2019-03-29T00:10:06.295Z,68.40
2019-03-29T00:13:14.503Z,68.20
2019-03-29T00:16:36.599Z,68.20
2019-03-29T00:19:41.481Z,68.00
2019-03-29T00:22:46.396Z,68.10
2019-03-29T00:25:51.381Z,68.00
2019-03-29T00:28:56.236Z,68.00
2019-03-29T00:32:01.267Z,68.10
2019-03-29T00:35:08.058Z,68.10
2019-03-29T00:38:13.729Z,68.20
2019-03-29T00:41:18.623Z,68.10
2019-03-29T00:44:23.643Z,68.00
2019-03-29T00:47:29.363Z,67.90
2019-03-29T00:50:35.063Z,67.80
2019-03-29T00:53:40.361Z,68.70
2019-03-29T00:56:47.092Z,67.90
2019-03-29T00:59:53.819Z,67.90
2019-03-29T01:02:58.733Z,68.00
2019-03-29T01:06:03.752Z,68.10
2019-03-29T01:09:08.563Z,68.20
2019-03-29T01:12:13.483Z,68.50
2019-03-29T01:15:18.352Z,68.60
2019-03-29T01:18:23.264Z,69.00
2019-03-29T01:21:28.086Z,68.50
2019-03-29T01:24:33.087Z,68.40
2019-03-29T01:27:37.966Z,68.40
2019-03-29T01:30:42.873Z,68.40
2019-03-29T01:33:47.752Z,68.40
2019-03-29T01:36:53.207Z,68.40
2019-03-29T01:39:58.693Z,68.50
2019-03-29T01:43:03.685Z,68.60
2019-03-29T01:46:08.563Z,68.50
2019-03-29T01:49:13.538Z,68.40
2019-03-29T01:52:18.410Z,68.20
2019-03-29T01:55:23.322Z,68.30
2019-03-29T01:58:28.248Z,68.30
2019-03-29T02:01:33.151Z,68.30
2019-03-29T02:04:38.014Z,68.20
2019-03-29T02:07:43.965Z,68.20
2019-03-29T02:10:49.244Z,68.20
2019-03-29T02:13:54.191Z,67.90
2019-03-29T02:16:58.998Z,67.90
2019-03-29T02:20:04.399Z,67.80
2019-03-29T02:23:09.326Z,67.80
2019-03-29T02:26:14.262Z,67.60
2019-03-29T02:29:19.165Z,67.70
2019-03-29T02:32:42.906Z,68.00
2019-03-29T02:35:47.802Z,68.00
2019-03-29T02:38:55.706Z,68.30
2019-03-29T02:41:59.360Z,68.50
2019-03-29T02:45:04.762Z,68.70
2019-03-29T02:48:09.656Z,69.10
2019-03-29T02:51:14.731Z,69.30
2019-03-29T02:54:19.639Z,69.60
2019-03-29T02:57:24.545Z,69.80
2019-03-29T03:00:29.519Z,70.10
2019-03-29T03:03:34.388Z,70.30
2019-03-29T03:06:39.221Z,70.50
2019-03-29T03:09:44.183Z,70.60
2019-03-29T03:12:49.017Z,70.80
2019-03-29T03:15:53.931Z,70.70
2019-03-29T03:18:58.765Z,70.90
2019-03-29T03:22:03.696Z,71.10
2019-03-29T03:25:09.100Z,71.10
2019-03-29T03:28:14.013Z,71.20
2019-03-29T03:31:18.905Z,71.40
2019-03-29T03:34:23.832Z,71.50
2019-03-29T03:37:28.710Z,71.50
2019-03-29T03:40:33.725Z,71.60
2019-03-29T03:43:38.652Z,71.80
2019-03-29T03:46:44.021Z,71.70
2019-03-29T03:49:49.020Z,71.80
2019-03-29T03:52:53.898Z,71.60
2019-03-29T03:56:17.791Z,71.50
2019-03-29T03:59:25.785Z,71.50
2019-03-29T04:02:30.661Z,71.50
2019-03-29T04:05:35.769Z,71.40
2019-03-29T04:08:40.665Z,71.60
2019-03-29T04:11:46.804Z,71.80
2019-03-29T04:14:51.703Z,71.80
2019-03-29T04:17:56.556Z,71.90
2019-03-29T04:21:01.479Z,71.80
2019-03-29T04:24:06.403Z,71.80
2019-03-29T04:27:11.297Z,71.90
2019-03-29T04:30:16.440Z,71.90
2019-03-29T04:33:21.359Z,71.90
2019-03-29T04:36:26.264Z,72.00
2019-03-29T04:39:31.143Z,72.00
2019-03-29T04:42:36.048Z,71.90
2019-03-29T04:45:59.714Z,72.10
2019-03-29T04:49:04.634Z,72.10
2019-03-29T04:52:09.611Z,72.10
2019-03-29T04:55:14.535Z,72.70
2019-03-29T04:58:19.355Z,72.10
2019-03-29T05:01:24.269Z,72.10
2019-03-29T05:04:29.087Z,72.10
2019-03-29T05:07:36.868Z,72.10
2019-03-29T05:10:40.555Z,72.20
2019-03-29T05:13:45.553Z,72.30
2019-03-29T05:16:50.455Z,72.50
2019-03-29T05:19:55.409Z,72.60
2019-03-29T05:23:00.257Z,72.70
2019-03-29T05:26:05.184Z,73.10
2019-03-29T05:29:10.084Z,73.30
2019-03-29T05:32:15.003Z,73.40
2019-03-29T05:35:19.897Z,73.50
2019-03-29T05:38:25.019Z,73.70
2019-03-29T05:41:29.819Z,74.80
2019-03-29T05:44:34.867Z,73.90
2019-03-29T05:47:39.752Z,73.90
2019-03-29T05:50:44.629Z,75.10
2019-03-29T05:53:49.564Z,74.30
2019-03-29T05:56:54.483Z,74.60
2019-03-29T05:59:59.345Z,74.60
2019-03-29T06:03:04.199Z,74.80
2019-03-29T06:06:09.051Z,74.70
2019-03-29T06:09:13.959Z,74.80
2019-03-29T06:12:18.804Z,75.00
2019-03-29T06:15:23.772Z,75.30
2019-03-29T06:18:28.593Z,75.20
2019-03-29T06:21:33.811Z,75.30
2019-03-29T06:24:38.705Z,75.60
2019-03-29T06:27:43.550Z,75.80
2019-03-29T06:30:48.435Z,75.90
2019-03-29T06:33:53.365Z,75.90
2019-03-29T06:36:59.748Z,76.40
2019-03-29T06:40:05.672Z,76.40
2019-03-29T06:43:10.559Z,76.20
2019-03-29T06:46:15.663Z,76.30
2019-03-29T06:49:20.573Z,76.30
2019-03-29T06:52:25.500Z,76.60
2019-03-29T06:55:30.342Z,76.20
2019-03-29T06:58:35.251Z,76.10
2019-03-29T07:01:40.157Z,76.20
2019-03-29T07:04:46.536Z,76.50
2019-03-29T07:07:51.353Z,76.50
2019-03-29T07:10:56.283Z,76.90
2019-03-29T07:14:01.179Z,76.80
2019-03-29T07:17:10.113Z,76.30
2019-03-29T07:20:13.286Z,76.80
2019-03-29T07:23:18.233Z,76.50
2019-03-29T07:26:23.171Z,76.20
2019-03-29T07:29:28.150Z,75.40
2019-03-29T07:32:34.135Z,75.70
2019-03-29T07:35:39.190Z,75.70
2019-03-29T07:38:44.161Z,75.80
2019-03-29T07:41:49.141Z,75.90
2019-03-29T07:44:54.024Z,76.10
2019-03-29T07:47:58.877Z,76.30
2019-03-29T07:51:03.789Z,76.00
2019-03-29T07:54:08.728Z,76.00
2019-03-29T07:57:13.606Z,76.10
2019-03-29T08:00:20.399Z,75.40
2019-03-29T08:03:25.199Z,75.40
2019-03-29T08:06:30.050Z,76.10
2019-03-29T08:09:35.392Z,76.10
2019-03-29T08:12:40.765Z,76.20
2019-03-29T08:15:45.740Z,76.10
2019-03-29T08:18:50.687Z,76.10
2019-03-29T08:21:57.821Z,76.10
2019-03-29T08:25:02.332Z,76.10
2019-03-29T08:28:07.217Z,76.40
2019-03-29T08:31:12.138Z,76.20
2019-03-29T08:34:17.077Z,76.50
2019-03-29T08:37:21.936Z,76.50
2019-03-29T08:40:26.913Z,76.80
2019-03-29T08:43:32.383Z,76.90
2019-03-29T08:46:37.218Z,77.00
2019-03-29T08:49:42.145Z,76.90
2019-03-29T08:52:47.235Z,76.70
2019-03-29T08:55:52.075Z,76.30
2019-03-29T08:58:56.920Z,76.20
2019-03-29T09:02:01.981Z,75.70
2019-03-29T09:05:07.240Z,75.40
2019-03-29T09:08:12.099Z,75.00
2019-03-29T09:11:16.901Z,74.60
2019-03-29T09:14:21.890Z,74.60
2019-03-29T09:17:26.778Z,74.00
2019-03-29T09:20:34.483Z,73.60
2019-03-29T09:23:38.552Z,73.70
2019-03-29T09:26:43.517Z,72.10
2019-03-29T09:29:48.387Z,72.10
2019-03-29T09:32:53.372Z,70.90
2019-03-29T09:35:58.259Z,69.60
2019-03-29T09:39:04.397Z,69.40
2019-03-29T09:42:09.821Z,68.70
2019-03-29T09:45:14.972Z,67.60
2019-03-29T09:48:19.893Z,67.40
2019-03-29T09:51:26.655Z,67.10
2019-03-29T09:54:31.602Z,66.90
2019-03-29T09:57:37.911Z,66.00
2019-03-29T10:00:43.245Z,65.90
2019-03-29T10:03:48.131Z,65.30
2019-03-29T10:06:52.944Z,64.20
2019-03-29T10:09:57.984Z,65.10
2019-03-29T10:13:02.899Z,65.00
2019-03-29T10:16:07.959Z,64.50
2019-03-29T10:19:12.893Z,63.80
2019-03-29T10:22:17.902Z,64.60
2019-03-29T10:25:22.975Z,63.40
2019-03-29T10:28:27.941Z,63.20
2019-03-29T10:31:33.009Z,63.50
2019-03-29T10:34:37.959Z,63.50
2019-03-29T10:37:42.848Z,63.90
2019-03-29T10:40:47.715Z,62.00
2019-03-29T10:43:52.633Z,62.20
2019-03-29T10:46:57.564Z,61.90
2019-03-29T10:50:02.394Z,61.30
2019-03-29T10:53:07.342Z,61.10
2019-03-29T10:56:12.334Z,60.90
2019-03-29T10:59:27.386Z,60.10
2019-03-29T11:02:25.377Z,60.00
2019-03-29T11:05:30.352Z,59.80
2019-03-29T11:08:35.282Z,59.40
2019-03-29T11:11:40.191Z,59.60
2019-03-29T11:14:45.030Z,59.30
2019-03-29T11:17:49.955Z,59.40
2019-03-29T11:20:54.822Z,58.90
2019-03-29T11:23:59.767Z,59.00
2019-03-29T11:27:04.668Z,59.40
2019-03-29T11:30:09.941Z,58.60
2019-03-29T11:33:14.828Z,58.50
2019-03-29T11:36:19.713Z,58.50
2019-03-29T11:39:27.331Z,58.10
2019-03-29T11:42:31.439Z,57.60
2019-03-29T11:45:36.347Z,57.30
2019-03-29T11:48:41.216Z,56.90
2019-03-29T11:51:46.116Z,56.70
2019-03-29T11:54:51.083Z,56.40
2019-03-29T11:57:56.169Z,56.20
2019-03-29T12:01:01.129Z,55.80
2019-03-29T12:04:06.040Z,55.30
2019-03-29T12:07:11.066Z,55.00
2019-03-29T12:10:15.955Z,54.50
2019-03-29T12:13:20.929Z,54.10
2019-03-29T12:16:25.809Z,53.90
2019-03-29T12:19:30.931Z,53.70
2019-03-29T12:22:35.928Z,53.50
2019-03-29T12:25:40.833Z,52.80
2019-03-29T12:28:45.730Z,52.40
2019-03-29T12:31:50.759Z,52.20
2019-03-29T12:34:55.571Z,51.80
2019-03-29T12:38:00.533Z,51.00
2019-03-29T12:41:05.650Z,51.50
2019-03-29T12:44:10.583Z,51.60
2019-03-29T12:47:15.524Z,51.70
2019-03-29T12:50:20.463Z,51.50
2019-03-29T12:53:25.316Z,51.30
2019-03-29T12:56:30.160Z,51.10
2019-03-29T12:59:35.112Z,50.80
2019-03-29T13:02:40.065Z,50.60
2019-03-29T13:05:44.953Z,50.50
2019-03-29T13:08:49.896Z,50.30
2019-03-29T13:11:54.767Z,50.20
2019-03-29T13:14:59.634Z,50.00
2019-03-29T13:18:07.667Z,49.40
2019-03-29T13:21:12.613Z,49.00
2019-03-29T13:24:17.548Z,49.30
2019-03-29T13:27:22.488Z,48.80
2019-03-29T13:30:27.577Z,48.60
2019-03-29T13:33:32.514Z,48.80
2019-03-29T13:36:37.411Z,48.80
2019-03-29T13:39:42.368Z,48.80
2019-03-29T13:42:47.275Z,48.00
2019-03-29T13:45:52.216Z,47.90
2019-03-29T13:48:57.138Z,47.60
2019-03-29T13:52:02.051Z,47.80
2019-03-29T13:55:07.724Z,47.90
2019-03-29T13:58:12.571Z,47.70
2019-03-29T14:01:17.502Z,47.60
2019-03-29T14:04:22.437Z,47.20
2019-03-29T14:07:27.253Z,47.10
2019-03-29T14:10:32.229Z,47.20
2019-03-29T14:13:37.124Z,47.30
2019-03-29T14:16:42.050Z,47.60
2019-03-29T14:19:46.951Z,47.60
2019-03-29T14:22:51.807Z,47.30
2019-03-29T14:25:56.708Z,47.10
2019-03-29T14:29:01.669Z,47.30
2019-03-29T14:32:06.535Z,47.30
2019-03-29T14:35:11.767Z,45.20
2019-03-29T14:38:16.632Z,46.40
2019-03-29T14:41:21.579Z,47.00
2019-03-29T14:44:26.519Z,47.30
2019-03-29T14:47:42.693Z,47.40
2019-03-29T14:50:37.957Z,47.30
2019-03-29T14:53:42.728Z,47.30
2019-03-29T14:56:49.248Z,47.00
2019-03-29T14:59:54.323Z,47.30
2019-03-29T15:02:59.236Z,47.30
2019-03-29T15:06:04.268Z,47.20
2019-03-29T15:09:09.127Z,47.40
2019-03-29T15:12:14.090Z,47.30
2019-03-29T15:15:20.667Z,47.20
2019-03-29T15:18:28.756Z,47.50
2019-03-29T15:21:33.663Z,47.30
2019-03-29T15:24:38.520Z,46.90
2019-03-29T15:27:43.455Z,46.70
2019-03-29T15:30:48.299Z,47.30
2019-03-29T15:33:55.606Z,46.30
2019-03-29T15:36:59.809Z,46.70
2019-03-29T15:40:05.258Z,47.00
2019-03-29T15:43:10.186Z,47.90
2019-03-29T15:46:15.136Z,47.50
2019-03-29T15:49:20.135Z,47.90
2019-03-29T15:52:25.049Z,48.50
2019-03-29T15:55:30.311Z,48.40
2019-03-29T15:58:35.303Z,48.70
2019-03-29T16:01:40.236Z,48.80
2019-03-29T16:04:48.230Z,48.70
2019-03-29T16:07:53.186Z,49.30
2019-03-29T16:10:58.091Z,50.30
2019-03-29T16:14:03.026Z,50.50
2019-03-29T16:17:07.984Z,51.70
2019-03-29T16:20:12.895Z,52.40
2019-03-29T16:23:17.792Z,53.20
2019-03-29T16:26:22.704Z,54.00
2019-03-29T16:29:27.669Z,54.70
2019-03-29T16:32:32.579Z,55.70
2019-03-29T16:35:38.359Z,56.00
2019-03-29T16:38:43.327Z,56.60
2019-03-29T16:41:48.236Z,57.10
2019-03-29T16:44:53.222Z,57.40
2019-03-29T16:47:58.130Z,57.50
2019-03-29T16:51:03.071Z,57.40
2019-03-29T16:54:09.147Z,57.80
2019-03-29T16:57:14.103Z,58.00
2019-03-29T17:00:19.342Z,57.90
2019-03-29T17:03:24.347Z,58.40
2019-03-29T17:06:29.388Z,58.40
2019-03-29T17:09:34.366Z,58.70
2019-03-29T17:12:39.749Z,59.30
2019-03-29T17:15:45.111Z,59.40
2019-03-29T17:18:50.027Z,59.70
2019-03-29T17:21:55.003Z,60.00
2019-03-29T17:25:00.249Z,60.00
2019-03-29T17:28:05.322Z,60.20
2019-03-29T17:31:13.809Z,60.80
2019-03-29T17:34:18.755Z,61.00
2019-03-29T17:37:23.689Z,61.80
2019-03-29T17:40:29.093Z,62.10
2019-03-29T17:43:35.251Z,62.80
2019-03-29T17:46:41.413Z,62.10
2019-03-29T17:49:46.395Z,62.80
2019-03-29T17:52:52.524Z,63.10
2019-03-29T17:55:57.558Z,63.30
2019-03-29T17:59:02.730Z,63.70
2019-03-29T18:02:09.663Z,65.40
2019-03-29T18:05:33.766Z,65.60
2019-03-29T18:08:39.636Z,65.60
2019-03-29T18:11:44.584Z,66.50
2019-03-29T18:14:49.530Z,66.60
2019-03-29T18:17:54.511Z,66.70
2019-03-29T18:20:59.458Z,66.40
2019-03-29T18:24:05.518Z,67.10
2019-03-29T18:27:10.438Z,67.60
2019-03-29T18:30:16.043Z,68.60
2019-03-29T18:33:22.765Z,69.00
2019-03-29T18:36:27.722Z,69.40
2019-03-29T18:39:33.430Z,69.60
2019-03-29T18:42:38.499Z,70.20
2019-03-29T18:45:43.386Z,70.40
2019-03-29T18:48:48.323Z,70.60
2019-03-29T18:51:53.240Z,71.00
2019-03-29T18:54:59.248Z,71.20
2019-03-29T18:58:05.919Z,71.30
2019-03-29T19:01:11.067Z,71.70
2019-03-29T19:04:16.016Z,72.00
2019-03-29T19:07:28.706Z,72.20
2019-03-29T19:10:33.635Z,72.30
2019-03-29T19:13:38.514Z,72.40
2019-03-29T19:16:43.475Z,72.70
2019-03-29T19:19:48.432Z,72.80
2019-03-29T19:22:54.821Z,73.10
2019-03-29T19:25:59.944Z,73.30
2019-03-29T19:29:04.934Z,73.20
2019-03-29T19:32:12.154Z,74.40
2019-03-29T19:35:17.311Z,73.50
2019-03-29T19:38:23.185Z,73.90
2019-03-29T19:41:28.433Z,73.90
2019-03-29T19:44:34.717Z,73.70
2019-03-29T19:47:40.298Z,73.80
2019-03-29T19:50:47.241Z,74.30
2019-03-29T19:54:06.654Z,74.20
2019-03-29T19:57:01.399Z,73.90
2019-03-29T20:00:08.332Z,74.20
2019-03-29T20:03:13.980Z,74.10
2019-03-29T20:06:21.418Z,75.50
2019-03-29T20:09:27.641Z,75.00
2019-03-29T20:12:33.436Z,75.20
2019-03-29T20:15:38.659Z,75.30
2019-03-29T20:18:43.601Z,74.90
2019-03-29T20:21:48.588Z,75.00
2019-03-29T20:24:53.569Z,75.00
2019-03-29T20:27:58.910Z,75.60
2019-03-29T20:31:03.908Z,75.60
2019-03-29T20:34:09.279Z,75.70
2019-03-29T20:37:14.200Z,76.30
2019-03-29T20:40:19.170Z,77.20
2019-03-29T20:43:25.446Z,77.30
2019-03-29T20:46:31.493Z,77.10
2019-03-29T20:49:36.650Z,77.20
2019-03-29T20:52:41.782Z,76.90
2019-03-29T20:55:46.700Z,76.70
2019-03-29T20:58:51.580Z,77.20
2019-03-29T21:01:56.496Z,78.20
2019-03-29T21:05:01.559Z,78.30
2019-03-29T21:08:07.606Z,78.50
2019-03-29T21:11:12.892Z,77.80
2019-03-29T21:14:17.820Z,77.60
2019-03-29T21:17:22.845Z,76.70
2019-03-29T21:20:27.883Z,76.80
2019-03-29T21:23:33.924Z,76.70
2019-03-29T21:26:41.165Z,77.20
2019-03-29T21:29:46.632Z,77.60
2019-03-29T21:32:53.721Z,77.40
2019-03-29T21:35:58.653Z,77.80
2019-03-29T21:39:07.024Z,78.40
2019-03-29T21:42:12.397Z,78.80
2019-03-29T21:45:28.015Z,78.70
2019-03-29T21:48:29.165Z,78.40
2019-03-29T21:51:30.828Z,78.10
2019-03-29T21:54:35.748Z,78.70
2019-03-29T21:57:41.244Z,77.80
2019-03-29T22:00:46.827Z,78.30
2019-03-29T22:03:51.719Z,77.80
2019-03-29T22:06:56.834Z,77.90
2019-03-29T22:10:01.847Z,78.30
2019-03-29T22:13:06.803Z,78.70
2019-03-29T22:16:11.720Z,78.60
2019-03-29T22:19:16.722Z,78.40
2019-03-29T22:22:21.673Z,77.90
2019-03-29T22:25:26.707Z,78.10
2019-03-29T22:28:31.635Z,77.80
2019-03-29T22:31:36.780Z,77.80
2019-03-29T22:34:41.716Z,77.80
2019-03-29T22:37:47.293Z,77.50
2019-03-29T22:40:52.207Z,78.40
2019-03-29T22:43:57.186Z,78.60
2019-03-29T22:47:02.099Z,78.80
2019-03-29T22:50:07.992Z,78.70
2019-03-29T22:53:12.822Z,79.10
2019-03-29T22:56:19.582Z,79.60
2019-03-29T22:59:27.293Z,79.70
2019-03-29T23:02:32.218Z,79.30
2019-03-29T23:05:37.300Z,79.20
2019-03-29T23:08:42.215Z,80.00
2019-03-29T23:11:47.558Z,80.90
2019-03-29T23:14:52.611Z,80.80
2019-03-29T23:17:57.530Z,79.70
2019-03-29T23:21:02.620Z,79.30
2019-03-29T23:24:07.511Z,78.40
2019-03-29T23:27:12.395Z,79.70
2019-03-29T23:30:19.031Z,79.60
2019-03-29T23:33:23.888Z,79.50
2019-03-29T23:36:28.801Z,79.30
2019-03-29T23:39:33.713Z,79.60
2019-03-29T23:42:38.683Z,80.40
2019-03-29T23:45:43.596Z,81.90
2019-03-29T23:48:48.546Z,82.40
2019-03-29T23:51:53.485Z,82.00
2019-03-29T23:54:58.442Z,81.00
2019-03-29T23:58:03.362Z,80.80
